Sea Dragon — 2CUW7 — position and weather

sailwx.info

Track history (hours):
 
Tides and Currents Weather Stations Pressure Air Temp Water Temp Dewpoint Dewpoint Depression Visibility Wind Speed Wind Dir Waves Ship Positions

Sea Dragon

Last reported at 2018-Apr-28 15:18 UTC. Time now 2018-Jun-19 16:17 UTC.
Position N 37°31' W 000°16'.
Warning: this ship's position is 52 days out of date.

Length 30 m; draft 3.6 m.

Type: Sailing vessel. MMSI: 235075965.

Date/timePositionNaut miles runAvg speedWind from/ knotsBaromVisibWave heightAir tempDewpointWater temp
2018-Apr-28 15:18N 37°31' W 000°16'2 7.2
2018-Apr-28 14:59N 37°30' W 000°19'3 5.6
2018-Apr-28 14:28N 37°29' W 000°22'2 4.2
2018-Apr-28 13:58N 37°28' W 000°25'3 6.3
2018-Apr-28 13:29N 37°27' W 000°28'13 6.5
2018-Apr-28 11:28N 37°20' W 000°42'3 6.8
2018-Apr-28 10:59N 37°18' W 000°45'3 7.0
2018-Apr-28 10:30N 37°16' W 000°49'4 7.0
2018-Apr-28 09:59N 37°15' W 000°53'5 7.0
2018-Apr-28 09:13N 37°12' W 000°59'220 4.4
2018-Apr-26 06:47N 36°07' W 005°20'3 0.8
2018-Apr-26 03:20N 36°09' W 005°22'0 0.0
2018-Apr-26 02:56N 36°09' W 005°22'0 0.0
2018-Apr-26 02:26N 36°09' W 005°22'0 0.0
2018-Apr-26 01:50N 36°09' W 005°22'0 0.0
2018-Apr-26 01:26N 36°09' W 005°22'0 0.0
2018-Apr-26 00:56N 36°09' W 005°22'0 0.0
2018-Apr-26 00:26N 36°09' W 005°22'0 0.0
2018-Apr-25 23:32N 36°09' W 005°22'0 0.0
2018-Apr-25 23:26N 36°09' W 005°22'0 0.0
2018-Apr-25 22:56N 36°09' W 005°22'0 0.0
2018-Apr-25 22:20N 36°09' W 005°22'0 0.0
2018-Apr-25 21:11N 36°09' W 005°22'0 0.0
2018-Apr-25 20:56N 36°09' W 005°22'0 0.0
2018-Apr-25 20:29N 36°09' W 005°22'0 0.0
2018-Apr-25 19:50N 36°09' W 005°22'0 0.0
2018-Apr-25 19:29N 36°09' W 005°22'0 0.0
2018-Apr-25 18:56N 36°09' W 005°22'0 0.0
2018-Apr-25 18:26N 36°09' W 005°22'0 0.0
2018-Apr-25 14:17N 36°09' W 005°22'0 0.0
2018-Apr-25 13:50N 36°09' W 005°22'0 0.0
2018-Apr-25 13:26N 36°09' W 005°22'0 0.0
2018-Apr-25 05:26N 36°09' W 005°22'0 0.0
2018-Apr-25 04:59N 36°09' W 005°22'0 0.0
2018-Apr-25 04:26N 36°09' W 005°22'0 0.0
2018-Apr-25 03:56N 36°09' W 005°22'0 0.0
2018-Apr-25 03:26N 36°09' W 005°22'0 0.0
2018-Apr-25 02:50N 36°09' W 005°22'0 0.0
2018-Apr-24 22:26N 36°09' W 005°22'0 0.0
2018-Apr-24 21:56N 36°09' W 005°22'0 0.0
2018-Apr-24 21:26N 36°09' W 005°22'0 0.0
2018-Apr-24 20:38N 36°09' W 005°22'0 0.0
2018-Apr-24 20:26N 36°09' W 005°22'0 0.0
2018-Apr-24 19:53N 36°09' W 005°22'0 0.0
2018-Apr-24 19:26N 36°09' W 005°22'0 0.0
2018-Apr-24 18:50N 36°09' W 005°22'0 0.0
2018-Apr-24 05:32N 36°09' W 005°22'0 0.0
2018-Apr-24 05:08N 36°09' W 005°22'0 0.0
2018-Apr-24 04:44N 36°09' W 005°22'0 0.0
2018-Apr-24 03:11N 36°09' W 005°22'0 0.0
2018-Apr-24 02:56N 36°09' W 005°22'0 0.0
2018-Apr-23 22:35N 36°09' W 005°22'0 0.0
2018-Apr-23 22:17N 36°09' W 005°22'0 0.0
2018-Apr-23 21:59N 36°09' W 005°22'0 0.0
2018-Apr-23 21:29N 36°09' W 005°22'0 0.0
2018-Apr-23 14:56N 36°09' W 005°22'0 0.0
2018-Apr-23 12:44N 36°09' W 005°22'0 0.0
2018-Apr-23 12:30N 36°09' W 005°22'0 0.7
2018-Apr-23 11:52N 36°09' W 005°22'1 3.0
2018-Apr-23 11:22N 36°07' W 005°22'3 7.0
2018-Apr-23 11:00N 36°05' W 005°22'3 6.8
2018-Apr-23 10:30N 36°01' W 005°22'4 7.3
2018-Apr-23 10:00N 35°59' W 005°26'4 7.2
2018-Apr-23 09:27N 35°58' W 005°31'  
2018-Apr-19 16:17N 28°33' W 014°54'2 8.4
2018-Apr-19 16:00N 28°31' W 014°56'4 8.2
2018-Apr-19 15:30N 28°29' W 014°59'4 8.7
2018-Apr-19 15:00N 28°25' W 015°03'4 8.1
2018-Apr-19 14:29N 28°23' W 015°06'4 8.1
2018-Apr-19 14:00N 28°20' W 015°10'4 8.2
2018-Apr-19 13:30N 28°17' W 015°13'4 8.7
2018-Apr-19 13:00N 28°14' W 015°17'5 9.3
2018-Apr-19 12:30N 28°11' W 015°21'3 6.4
2018-Apr-19 12:00N 28°09' W 015°23'2 4.3
2018-Apr-19 11:30N 28°07' W 015°25'0 0.6
2018-Apr-19 10:58N 28°08' W 015°26'0 0.0
2018-Apr-19 10:28N 28°08' W 015°26'0 0.0
2018-Apr-19 09:58N 28°08' W 015°26'0 0.1
2018-Apr-19 09:28N 28°08' W 015°26'0 0.0
2018-Apr-19 08:58N 28°08' W 015°26'0 0.0
2018-Apr-19 08:28N 28°08' W 015°26'0 0.0
2018-Apr-19 07:58N 28°08' W 015°26'0 0.0
2018-Apr-19 07:28N 28°08' W 015°26'0 0.0
2018-Apr-19 06:49N 28°08' W 015°26'0 0.0
2018-Apr-19 06:19N 28°08' W 015°26'0 0.0
2018-Apr-19 05:58N 28°08' W 015°26'0 0.0
2018-Apr-19 05:19N 28°08' W 015°26'0 0.0
2018-Apr-19 04:52N 28°08' W 015°26'0 0.0
2018-Apr-19 04:19N 28°08' W 015°26'0 0.0
2018-Apr-19 03:52N 28°08' W 015°26'0 0.0
2018-Apr-19 03:22N 28°08' W 015°26'0 0.0
2018-Apr-19 02:52N 28°08' W 015°26'0 0.0
2018-Apr-19 02:19N 28°08' W 015°26'0 0.0
2018-Apr-19 01:52N 28°08' W 015°26'0 0.0
2018-Apr-19 01:25N 28°08' W 015°26'0 0.0
2018-Apr-19 00:55N 28°08' W 015°26'0 0.0
2018-Apr-19 00:25N 28°08' W 015°26'0 0.0
2018-Apr-18 23:55N 28°08' W 015°26'0 0.0
2018-Apr-18 23:25N 28°08' W 015°26'0 0.0
2018-Apr-18 22:58N 28°08' W 015°26'0 0.0
2018-Apr-18 22:28N 28°08' W 015°26'0 0.0
2018-Apr-18 21:58N 28°08' W 015°26'0 0.0
2018-Apr-18 21:13N 28°08' W 015°26'0 0.0
2018-Apr-18 20:58N 28°08' W 015°26'0 0.0
2018-Apr-18 20:28N 28°08' W 015°26'0 0.0
2018-Apr-18 19:58N 28°08' W 015°26'0 0.0
2018-Apr-18 19:28N 28°08' W 015°26'0 0.0
2018-Apr-18 18:58N 28°08' W 015°26'0 0.0
2018-Apr-18 18:28N 28°08' W 015°26'0 0.0
2018-Apr-18 17:43N 28°08' W 015°26'0 0.0
2018-Apr-18 17:28N 28°08' W 015°26'0 0.0
2018-Apr-18 16:58N 28°08' W 015°26'0 0.0
2018-Apr-18 16:28N 28°08' W 015°26'0 0.0
2018-Apr-18 15:58N 28°08' W 015°26'0 0.0
2018-Apr-18 15:19N 28°08' W 015°26'  
Track history (hours):
 
Tides and Currents Weather Stations Pressure Air Temp Water Temp Dewpoint Dewpoint Depression Visibility Wind Speed Wind Dir Waves Ship Positions

Sea Dragon

Last reported at 2018-Apr-28 15:18 UTC. Time now 2018-Jun-19 16:17 UTC.
Position N 37°31' W 000°16'.
Warning: this ship's position is 52 days out of date.

Length 30 m; draft 3.6 m.

Type: Sailing vessel. MMSI: 235075965.

Date/timePositionNaut miles runAvg speedWind from/ knotsBaromVisibWave heightAir tempDewpointWater temp
2018-Apr-28 15:18N 37°31' W 000°16'2 7.2
2018-Apr-28 14:59N 37°30' W 000°19'3 5.6
2018-Apr-28 14:28N 37°29' W 000°22'2 4.2
2018-Apr-28 13:58N 37°28' W 000°25'3 6.3
2018-Apr-28 13:29N 37°27' W 000°28'13 6.5
2018-Apr-28 11:28N 37°20' W 000°42'3 6.8
2018-Apr-28 10:59N 37°18' W 000°45'3 7.0
2018-Apr-28 10:30N 37°16' W 000°49'4 7.0
2018-Apr-28 09:59N 37°15' W 000°53'5 7.0
2018-Apr-28 09:13N 37°12' W 000°59'220 4.4
2018-Apr-26 06:47N 36°07' W 005°20'3 0.8
2018-Apr-26 03:20N 36°09' W 005°22'0 0.0
2018-Apr-26 02:56N 36°09' W 005°22'0 0.0
2018-Apr-26 02:26N 36°09' W 005°22'0 0.0
2018-Apr-26 01:50N 36°09' W 005°22'0 0.0
2018-Apr-26 01:26N 36°09' W 005°22'0 0.0
2018-Apr-26 00:56N 36°09' W 005°22'0 0.0
2018-Apr-26 00:26N 36°09' W 005°22'0 0.0
2018-Apr-25 23:32N 36°09' W 005°22'0 0.0
2018-Apr-25 23:26N 36°09' W 005°22'0 0.0
2018-Apr-25 22:56N 36°09' W 005°22'0 0.0
2018-Apr-25 22:20N 36°09' W 005°22'0 0.0
2018-Apr-25 21:11N 36°09' W 005°22'0 0.0
2018-Apr-25 20:56N 36°09' W 005°22'0 0.0
2018-Apr-25 20:29N 36°09' W 005°22'0 0.0
2018-Apr-25 19:50N 36°09' W 005°22'0 0.0
2018-Apr-25 19:29N 36°09' W 005°22'0 0.0
2018-Apr-25 18:56N 36°09' W 005°22'0 0.0
2018-Apr-25 18:26N 36°09' W 005°22'0 0.0
2018-Apr-25 14:17N 36°09' W 005°22'0 0.0
2018-Apr-25 13:50N 36°09' W 005°22'0 0.0
2018-Apr-25 13:26N 36°09' W 005°22'0 0.0
2018-Apr-25 05:26N 36°09' W 005°22'0 0.0
2018-Apr-25 04:59N 36°09' W 005°22'0 0.0
2018-Apr-25 04:26N 36°09' W 005°22'0 0.0
2018-Apr-25 03:56N 36°09' W 005°22'0 0.0
2018-Apr-25 03:26N 36°09' W 005°22'0 0.0
2018-Apr-25 02:50N 36°09' W 005°22'0 0.0
2018-Apr-24 22:26N 36°09' W 005°22'0 0.0
2018-Apr-24 21:56N 36°09' W 005°22'0 0.0
2018-Apr-24 21:26N 36°09' W 005°22'0 0.0
2018-Apr-24 20:38N 36°09' W 005°22'0 0.0
2018-Apr-24 20:26N 36°09' W 005°22'0 0.0
2018-Apr-24 19:53N 36°09' W 005°22'0 0.0
2018-Apr-24 19:26N 36°09' W 005°22'0 0.0
2018-Apr-24 18:50N 36°09' W 005°22'0 0.0
2018-Apr-24 05:32N 36°09' W 005°22'0 0.0
2018-Apr-24 05:08N 36°09' W 005°22'0 0.0
2018-Apr-24 04:44N 36°09' W 005°22'0 0.0
2018-Apr-24 03:11N 36°09' W 005°22'0 0.0
2018-Apr-24 02:56N 36°09' W 005°22'0 0.0
2018-Apr-23 22:35N 36°09' W 005°22'0 0.0
2018-Apr-23 22:17N 36°09' W 005°22'0 0.0
2018-Apr-23 21:59N 36°09' W 005°22'0 0.0
2018-Apr-23 21:29N 36°09' W 005°22'0 0.0
2018-Apr-23 14:56N 36°09' W 005°22'0 0.0
2018-Apr-23 12:44N 36°09' W 005°22'0 0.0
2018-Apr-23 12:30N 36°09' W 005°22'0 0.7
2018-Apr-23 11:52N 36°09' W 005°22'1 3.0
2018-Apr-23 11:22N 36°07' W 005°22'3 7.0
2018-Apr-23 11:00N 36°05' W 005°22'3 6.8
2018-Apr-23 10:30N 36°01' W 005°22'4 7.3
2018-Apr-23 10:00N 35°59' W 005°26'4 7.2
2018-Apr-23 09:27N 35°58' W 005°31'  
2018-Apr-19 16:17N 28°33' W 014°54'2 8.4
2018-Apr-19 16:00N 28°31' W 014°56'4 8.2
2018-Apr-19 15:30N 28°29' W 014°59'4 8.7
2018-Apr-19 15:00N 28°25' W 015°03'4 8.1
2018-Apr-19 14:29N 28°23' W 015°06'4 8.1
2018-Apr-19 14:00N 28°20' W 015°10'4 8.2
2018-Apr-19 13:30N 28°17' W 015°13'4 8.7
2018-Apr-19 13:00N 28°14' W 015°17'5 9.3
2018-Apr-19 12:30N 28°11' W 015°21'3 6.4
2018-Apr-19 12:00N 28°09' W 015°23'2 4.3
2018-Apr-19 11:30N 28°07' W 015°25'0 0.6
2018-Apr-19 10:58N 28°08' W 015°26'0 0.0
2018-Apr-19 10:28N 28°08' W 015°26'0 0.0
2018-Apr-19 09:58N 28°08' W 015°26'0 0.1
2018-Apr-19 09:28N 28°08' W 015°26'0 0.0
2018-Apr-19 08:58N 28°08' W 015°26'0 0.0
2018-Apr-19 08:28N 28°08' W 015°26'0 0.0
2018-Apr-19 07:58N 28°08' W 015°26'0 0.0
2018-Apr-19 07:28N 28°08' W 015°26'0 0.0
2018-Apr-19 06:49N 28°08' W 015°26'0 0.0
2018-Apr-19 06:19N 28°08' W 015°26'0 0.0
2018-Apr-19 05:58N 28°08' W 015°26'0 0.0
2018-Apr-19 05:19N 28°08' W 015°26'0 0.0
2018-Apr-19 04:52N 28°08' W 015°26'0 0.0
2018-Apr-19 04:19N 28°08' W 015°26'0 0.0
2018-Apr-19 03:52N 28°08' W 015°26'0 0.0
2018-Apr-19 03:22N 28°08' W 015°26'0 0.0
2018-Apr-19 02:52N 28°08' W 015°26'0 0.0
2018-Apr-19 02:19N 28°08' W 015°26'0 0.0
2018-Apr-19 01:52N 28°08' W 015°26'0 0.0
2018-Apr-19 01:25N 28°08' W 015°26'0 0.0
2018-Apr-19 00:55N 28°08' W 015°26'0 0.0
2018-Apr-19 00:25N 28°08' W 015°26'0 0.0
2018-Apr-18 23:55N 28°08' W 015°26'0 0.0
2018-Apr-18 23:25N 28°08' W 015°26'0 0.0
2018-Apr-18 22:58N 28°08' W 015°26'0 0.0
2018-Apr-18 22:28N 28°08' W 015°26'0 0.0
2018-Apr-18 21:58N 28°08' W 015°26'0 0.0
2018-Apr-18 21:13N 28°08' W 015°26'0 0.0
2018-Apr-18 20:58N 28°08' W 015°26'0 0.0
2018-Apr-18 20:28N 28°08' W 015°26'0 0.0
2018-Apr-18 19:58N 28°08' W 015°26'0 0.0
2018-Apr-18 19:28N 28°08' W 015°26'0 0.0
2018-Apr-18 18:58N 28°08' W 015°26'0 0.0
2018-Apr-18 18:28N 28°08' W 015°26'0 0.0
2018-Apr-18 17:43N 28°08' W 015°26'0 0.0
2018-Apr-18 17:28N 28°08' W 015°26'0 0.0
2018-Apr-18 16:58N 28°08' W 015°26'0 0.0
2018-Apr-18 16:28N 28°08' W 015°26'0 0.0
2018-Apr-18 15:58N 28°08' W 015°26'0 0.0
2018-Apr-18 15:19N 28°08' W 015°26'  

Dump ship's entire track history